Time;durP1;ratioP1;P1;durP2;ratioP2;P2;SDS_P1;SDS_P2;PMS_P1;PMS_P2;Temp;Humidity;BMP_temperature;BMP_pressure;BME280_temperature;BME280_humidity;BME280_pressure;Samples;Min_cycle;Max_cycle;Signal;HPM_P1;HPM_P2
2022/09/10 00:00:33;;;;;;;12.32;6.57;;;;;;;;;;5024856;28;20125;-58
2022/09/10 00:03:01;;;;;;;12.18;6.88;;;;;;;;;;5025630;28;20045;-61
2022/09/10 00:05:27;;;;;;;;;;;;;;;;;;5026298;28;20505;-58
2022/09/10 00:07:53;;;;;;;11.00;6.60;;;;;;;;;;5024387;28;20302;-58
2022/09/10 00:10:20;;;;;;;10.48;6.85;;;;;;;;;;5025466;28;20049;-58
2022/09/10 00:12:47;;;;;;;13.27;8.00;;;;;;;;;;5025333;28;20045;-58
2022/09/10 00:15:14;;;;;;;14.27;7.47;;;;;;;;;;5024170;28;20050;-58
2022/09/10 00:17:40;;;;;;;14.55;7.78;;;;;;;;;;5025175;28;20049;-58
2022/09/10 00:20:08;;;;;;;14.75;8.05;;;;;;;;;;5025228;28;20053;-58
2022/09/10 00:22:34;;;;;;;14.18;8.27;;;;;;;;;;5024383;28;20120;-58
2022/09/10 00:25:00;;;;;;;12.68;7.85;;;;;;;;;;5025170;28;20049;-58
2022/09/10 00:27:26;;;;;;;14.23;8.90;;;;;;;;;;5025127;28;20049;-57
2022/09/10 00:29:53;;;;;;;13.60;8.00;;;;;;;;;;5024520;28;20399;-58
2022/09/10 00:32:20;;;;;;;14.82;8.35;;;;;;;;;;5024846;28;20399;-58
2022/09/10 00:34:47;;;;;;;14.18;8.43;;;;;;;;;;5024736;28;20048;-57
2022/09/10 00:37:15;;;;;;;14.13;8.77;;;;;;;;;;5024232;28;20053;-58
2022/09/10 00:39:41;;;;;;;14.93;8.73;;;;;;;;;;5024693;28;20064;-58
2022/09/10 00:42:13;;;;;;;15.23;8.73;;;;;;;;;;5024516;28;20041;-58
2022/09/10 00:44:39;;;;;;;18.58;9.43;;;;;;;;;;5024033;28;20130;-58
2022/09/10 00:47:11;;;;;;;13.27;8.63;;;;;;;;;;5025023;28;20044;-58
2022/09/10 00:49:40;;;;;;;16.05;8.82;;;;;;;;;;5037659;28;20182;-57
2022/09/10 00:52:07;;;;;;;16.98;9.20;;;;;;;;;;5024933;28;20056;-58
2022/09/10 00:54:35;;;;;;;18.10;9.00;;;;;;;;;;5024200;28;20037;-58
2022/09/10 00:57:01;;;;;;;;;;;;;;;;;;5025034;28;20061;-58
2022/09/10 00:59:27;;;;;;;15.30;9.52;;;;;;;;;;5024014;28;20470;-59
2022/09/10 01:01:54;;;;;;;19.42;9.90;;;;;;;;;;5024167;28;20038;-58
2022/09/10 01:04:21;;;;;;;16.08;10.07;;;;;;;;;;5023824;28;20132;-58
2022/09/10 01:06:48;;;;;;;16.48;10.20;;;;;;;;;;5024043;28;20041;-58
2022/09/10 01:09:15;;;;;;;15.43;9.13;;;;;;;;;;5024357;28;20057;-58
2022/09/10 01:11:45;;;;;;;16.38;9.55;;;;;;;;;;5024233;28;20037;-58
2022/09/10 01:14:21;;;;;;;14.63;9.88;;;;;;;;;;5022604;28;20069;-58
2022/09/10 01:16:57;;;;;;;15.60;10.10;;;;;;;;;;5021466;28;20380;-58
2022/09/10 01:19:46;;;;;;;17.38;10.20;;;;;;;;;;5023875;28;20037;-58
2022/09/10 01:22:31;;;;;;;16.95;10.23;;;;;;;;;;5024013;28;20079;-58
2022/09/10 01:25:03;;;;;;;18.60;10.98;;;;;;;;;;5024530;28;20098;-58
2022/09/10 01:27:32;;;;;;;18.05;10.88;;;;;;;;;;5023853;28;20433;-59
2022/09/10 01:29:58;;;;;;;21.40;11.23;;;;;;;;;;5023361;28;20396;-58
2022/09/10 01:32:30;;;;;;;22.02;11.30;;;;;;;;;;5024148;28;20077;-58
2022/09/10 01:35:04;;;;;;;19.27;11.35;;;;;;;;;;5023787;28;20037;-58
2022/09/10 01:37:30;;;;;;;18.27;12.05;;;;;;;;;;5023460;28;20088;-58
2022/09/10 01:39:58;;;;;;;25.77;11.70;;;;;;;;;;5024185;28;20049;-58
2022/09/10 01:42:25;;;;;;;18.33;11.40;;;;;;;;;;5023755;28;20089;-57
2022/09/10 01:44:52;;;;;;;21.10;12.73;;;;;;;;;;5022730;28;20061;-58
2022/09/10 01:47:25;;;;;;;25.02;12.43;;;;;;;;;;5023112;28;20523;-58
2022/09/10 01:49:52;;;;;;;19.80;12.05;;;;;;;;;;5037057;28;20065;-58
2022/09/10 01:52:27;;;;;;;21.20;12.50;;;;;;;;;;5039124;28;20119;-57
2022/09/10 01:55:10;;;;;;;22.60;12.95;;;;;;;;;;5043245;28;20808;-58
2022/09/10 01:57:36;;;;;;;22.75;12.85;;;;;;;;;;5043021;28;20048;-58
2022/09/10 02:00:08;;;;;;;20.92;13.32;;;;;;;;;;5042474;28;20052;-58
2022/09/10 02:02:40;;;;;;;23.83;13.52;;;;;;;;;;5043126;28;20067;-58
2022/09/10 02:05:08;;;;;;;21.90;12.60;;;;;;;;;;5042965;28;20090;-58
2022/09/10 02:07:35;;;;;;;23.43;13.40;;;;;;;;;;5042802;28;20064;-58
2022/09/10 02:10:02;;;;;;;21.70;12.93;;;;;;;;;;5042375;28;20366;-58
2022/09/10 02:12:28;;;;;;;19.23;11.90;;;;;;;;;;5043182;28;20041;-57
2022/09/10 02:14:55;;;;;;;27.98;13.15;;;;;;;;;;5041665;28;20159;-57
2022/09/10 02:17:25;;;;;;;22.80;13.02;;;;;;;;;;5023121;28;20041;-57
2022/09/10 02:19:52;;;;;;;20.27;13.05;;;;;;;;;;5022763;28;20132;-58
2022/09/10 02:22:18;;;;;;;16.52;11.55;;;;;;;;;;5022388;28;20068;-58
2022/09/10 02:24:44;;;;;;;21.35;12.93;;;;;;;;;;5023067;28;20094;-58
2022/09/10 02:27:11;;;;;;;23.85;12.00;;;;;;;;;;5039701;28;20121;-58
2022/09/10 02:29:38;;;;;;;19.52;12.65;;;;;;;;;;5041834;28;20036;-58
2022/09/10 02:32:05;;;;;;;17.40;12.13;;;;;;;;;;5042691;28;20045;-58
2022/09/10 02:34:31;;;;;;;17.50;11.73;;;;;;;;;;5035095;28;20095;-58
2022/09/10 02:36:58;;;;;;;19.02;11.73;;;;;;;;;;5023074;28;20555;-57
2022/09/10 02:39:24;;;;;;;18.58;12.55;;;;;;;;;;5022333;28;20140;-57
2022/09/10 02:41:50;;;;;;;21.77;12.32;;;;;;;;;;5022515;28;20045;-58
2022/09/10 02:44:16;;;;;;;17.98;11.77;;;;;;;;;;5020368;28;20045;-58
2022/09/10 02:46:43;;;;;;;21.98;13.07;;;;;;;;;;5022248;28;20048;-58
2022/09/10 02:49:10;;;;;;;19.40;12.07;;;;;;;;;;5022102;28;20046;-58
2022/09/10 02:51:37;;;;;;;18.88;11.77;;;;;;;;;;5022478;28;20093;-58
2022/09/10 02:54:04;;;;;;;18.98;11.70;;;;;;;;;;5022044;28;20053;-58
2022/09/10 02:56:30;;;;;;;18.73;11.32;;;;;;;;;;5022145;28;20041;-59
2022/09/10 02:58:56;;;;;;;21.50;11.50;;;;;;;;;;5022515;28;20052;-58
2022/09/10 03:01:23;;;;;;;21.55;12.13;;;;;;;;;;5038958;28;20114;-58
2022/09/10 03:03:50;;;;;;;21.40;11.80;;;;;;;;;;5041150;28;20460;-58
2022/09/10 03:06:16;;;;;;;19.75;11.63;;;;;;;;;;5039916;28;20127;-59
2022/09/10 03:08:43;;;;;;;21.73;11.43;;;;;;;;;;5021371;28;20048;-57
2022/09/10 03:11:11;;;;;;;24.33;11.85;;;;;;;;;;5021916;28;20439;-58
2022/09/10 03:13:37;;;;;;;19.23;11.57;;;;;;;;;;5021939;28;20199;-58
2022/09/10 03:16:03;;;;;;;20.38;11.75;;;;;;;;;;5021348;28;20049;-58
2022/09/10 03:18:31;;;;;;;20.40;12.43;;;;;;;;;;5021494;28;20049;-59
2022/09/10 03:21:07;;;;;;;20.05;12.88;;;;;;;;;;5022607;28;20046;-58
2022/09/10 03:23:33;;;;;;;18.60;11.48;;;;;;;;;;5022016;28;20092;-58
2022/09/10 03:25:59;;;;;;;20.92;12.02;;;;;;;;;;5022332;28;20063;-58
2022/09/10 03:28:26;;;;;;;21.70;11.75;;;;;;;;;;5022049;28;20056;-58
2022/09/10 03:30:52;;;;;;;20.83;12.20;;;;;;;;;;5020933;28;20049;-58
2022/09/10 03:33:20;;;;;;;19.90;12.10;;;;;;;;;;5022024;28;20064;-58
2022/09/10 03:35:47;;;;;;;22.17;11.65;;;;;;;;;;5021555;28;20048;-58
2022/09/10 03:38:13;;;;;;;18.27;11.13;;;;;;;;;;5021980;28;20124;-58
2022/09/10 03:40:40;;;;;;;22.52;11.80;;;;;;;;;;5021354;28;20573;-58
2022/09/10 03:43:06;;;;;;;19.77;11.20;;;;;;;;;;5022351;28;20546;-58
2022/09/10 03:45:32;;;;;;;22.70;11.82;;;;;;;;;;5020731;28;20128;-58
2022/09/10 03:47:58;;;;;;;19.05;11.25;;;;;;;;;;5022145;28;20088;-58
2022/09/10 03:50:25;;;;;;;18.58;11.57;;;;;;;;;;5021981;28;20081;-58
2022/09/10 03:52:51;;;;;;;19.42;11.57;;;;;;;;;;5021286;28;20343;-58
2022/09/10 03:55:17;;;;;;;21.60;11.82;;;;;;;;;;5021873;28;20496;-58
2022/09/10 03:57:44;;;;;;;22.00;11.82;;;;;;;;;;5021168;28;20083;-58
2022/09/10 04:00:11;;;;;;;23.73;12.57;;;;;;;;;;5028274;28;20037;-58
2022/09/10 04:02:37;;;;;;;28.55;13.10;;;;;;;;;;5041578;28;20061;-58
2022/09/10 04:05:04;;;;;;;22.08;12.68;;;;;;;;;;5041441;28;20111;-58
2022/09/10 04:07:30;;;;;;;20.27;11.88;;;;;;;;;;5028554;28;20046;-58
2022/09/10 04:09:56;;;;;;;21.55;11.65;;;;;;;;;;5023116;28;20045;-58
2022/09/10 04:12:23;;;;;;;23.27;13.00;;;;;;;;;;5031230;28;20129;-58
2022/09/10 04:14:49;;;;;;;20.65;12.50;;;;;;;;;;5020416;28;20096;-58
2022/09/10 04:17:16;;;;;;;23.30;12.50;;;;;;;;;;5025275;28;20526;-58
2022/09/10 04:19:43;;;;;;;28.13;12.90;;;;;;;;;;5025033;28;20128;-58
2022/09/10 04:22:09;;;;;;;22.80;12.32;;;;;;;;;;5024819;28;20048;-58
2022/09/10 04:24:35;;;;;;;25.13;12.50;;;;;;;;;;5025303;28;20079;-57
2022/09/10 04:27:01;;;;;;;22.10;12.55;;;;;;;;;;5024941;28;20045;-58
2022/09/10 04:29:27;;;;;;;24.17;12.52;;;;;;;;;;5024535;28;20045;-58
2022/09/10 04:31:54;;;;;;;20.08;11.75;;;;;;;;;;5024954;28;20133;-58
2022/09/10 04:34:21;;;;;;;20.30;11.88;;;;;;;;;;5028460;28;20556;-58
2022/09/10 04:36:48;;;;;;;21.42;12.38;;;;;;;;;;5029157;28;20052;-58
2022/09/10 04:39:15;;;;;;;19.85;12.05;;;;;;;;;;5024879;28;20075;-57
2022/09/10 04:41:41;;;;;;;30.52;13.05;;;;;;;;;;5024672;28;20042;-58
2022/09/10 04:44:07;;;;;;;26.00;13.15;;;;;;;;;;5024445;28;20124;-58
2022/09/10 04:46:35;;;;;;;23.17;12.32;;;;;;;;;;5024637;28;20073;-58
2022/09/10 04:49:01;;;;;;;17.40;11.35;;;;;;;;;;5024309;28;20091;-58
2022/09/10 04:51:27;;;;;;;21.00;12.95;;;;;;;;;;5024917;28;20041;-57
2022/09/10 04:53:54;;;;;;;24.88;12.60;;;;;;;;;;5024089;28;20522;-58
2022/09/10 04:56:20;;;;;;;21.67;12.15;;;;;;;;;;5024640;28;20545;-58
2022/09/10 04:58:47;;;;;;;25.73;13.15;;;;;;;;;;5023900;28;20128;-62
2022/09/10 05:01:13;;;;;;;28.73;13.60;;;;;;;;;;5040979;28;20068;-58
2022/09/10 05:03:39;;;;;;;30.20;12.73;;;;;;;;;;5044334;28;20048;-58
2022/09/10 05:06:06;;;;;;;23.88;12.90;;;;;;;;;;5043948;28;20425;-58
2022/09/10 05:08:32;;;;;;;28.83;13.20;;;;;;;;;;5022115;28;20061;-58
2022/09/10 05:11:00;;;;;;;23.05;13.00;;;;;;;;;;5024625;28;20100;-58
2022/09/10 05:13:26;;;;;;;22.58;12.43;;;;;;;;;;5023541;28;20053;-58
2022/09/10 05:15:52;;;;;;;23.58;12.80;;;;;;;;;;5023317;28;20067;-58
2022/09/10 05:18:18;;;;;;;25.10;13.93;;;;;;;;;;5022849;28;20715;-58
2022/09/10 05:20:44;;;;;;;23.20;12.05;;;;;;;;;;5024101;28;20048;-57
2022/09/10 05:23:10;;;;;;;25.88;12.32;;;;;;;;;;5023578;28;20095;-58
2022/09/10 05:25:37;;;;;;;25.73;12.93;;;;;;;;;;5023720;28;20430;-58
2022/09/10 05:28:04;;;;;;;24.30;13.05;;;;;;;;;;5023434;28;20053;-58
2022/09/10 05:30:31;;;;;;;26.45;12.60;;;;;;;;;;5023008;28;20041;-58
2022/09/10 05:33:01;;;;;;;28.42;12.80;;;;;;;;;;5024785;28;20042;-58
2022/09/10 05:35:27;;;;;;;26.67;13.00;;;;;;;;;;5023964;28;20034;-58
2022/09/10 05:37:56;;;;;;;28.60;13.30;;;;;;;;;;5022823;28;20041;-58
2022/09/10 05:40:22;;;;;;;29.23;14.48;;;;;;;;;;5023598;28;20199;-58
2022/09/10 05:42:48;;;;;;;25.20;12.15;;;;;;;;;;5023726;28;20041;-58
2022/09/10 05:45:14;;;;;;;27.48;12.95;;;;;;;;;;5022839;28;20454;-58
2022/09/10 05:47:42;;;;;;;32.28;13.82;;;;;;;;;;5022047;28;20081;-58
2022/09/10 05:50:10;;;;;;;30.02;13.30;;;;;;;;;;5023492;28;20052;-58
2022/09/10 05:52:36;;;;;;;32.38;13.55;;;;;;;;;;5022419;28;20091;-58
2022/09/10 05:55:02;;;;;;;25.10;12.80;;;;;;;;;;5023856;28;20041;-58
2022/09/10 05:57:30;;;;;;;26.70;13.98;;;;;;;;;;5023852;28;20073;-57
2022/09/10 05:59:56;;;;;;;28.20;13.73;;;;;;;;;;5028589;28;20071;-57
2022/09/10 06:02:22;;;;;;;32.08;15.23;;;;;;;;;;5043095;28;20033;-58
2022/09/10 06:04:49;;;;;;;29.38;13.43;;;;;;;;;;5025308;28;20033;-58
2022/09/10 06:07:15;;;;;;;28.20;13.52;;;;;;;;;;5022857;28;20124;-58
2022/09/10 06:09:41;;;;;;;30.30;14.07;;;;;;;;;;5022943;28;20045;-58
2022/09/10 06:12:07;;;;;;;27.23;14.43;;;;;;;;;;5028324;28;20047;-58
2022/09/10 06:14:34;;;;;;;31.95;13.45;;;;;;;;;;5027528;28;20127;-58
2022/09/10 06:17:00;;;;;;;35.88;13.63;;;;;;;;;;5027938;28;20045;-59
2022/09/10 06:19:26;;;;;;;30.73;13.40;;;;;;;;;;5026367;28;20045;-58
2022/09/10 06:21:52;;;;;;;37.28;14.43;;;;;;;;;;5024355;28;20033;-58
2022/09/10 06:24:19;;;;;;;35.25;15.52;;;;;;;;;;5025762;28;20353;-58
2022/09/10 06:26:51;;;;;;;30.40;14.50;;;;;;;;;;5025118;28;20078;-57
2022/09/10 06:29:18;;;;;;;26.88;14.75;;;;;;;;;;5026148;28;20054;-58
2022/09/10 06:31:45;;;;;;;30.17;14.30;;;;;;;;;;5027812;28;20084;-58
2022/09/10 06:34:11;;;;;;;32.25;15.35;;;;;;;;;;5026321;28;20052;-58
2022/09/10 06:36:38;;;;;;;32.25;14.05;;;;;;;;;;5028661;28;20384;-58
2022/09/10 06:39:06;;;;;;;35.50;14.75;;;;;;;;;;5022343;28;20564;-58
2022/09/10 06:41:33;;;;;;;35.10;13.60;;;;;;;;;;5025901;28;20072;-58
2022/09/10 06:43:59;;;;;;;34.67;13.50;;;;;;;;;;5032466;28;20624;-59
2022/09/10 06:46:26;;;;;;;30.30;13.70;;;;;;;;;;5036322;28;20037;-58
2022/09/10 06:48:52;;;;;;;29.58;13.38;;;;;;;;;;5034295;28;20077;-58
2022/09/10 06:51:19;;;;;;;27.13;13.63;;;;;;;;;;5033481;28;20038;-58
2022/09/10 06:53:45;;;;;;;29.30;14.63;;;;;;;;;;5034420;28;20415;-58
2022/09/10 06:56:12;;;;;;;31.02;15.15;;;;;;;;;;5033911;28;20053;-58
2022/09/10 06:58:38;;;;;;;35.67;15.55;;;;;;;;;;5034373;28;20036;-58
2022/09/10 07:01:06;;;;;;;31.90;14.57;;;;;;;;;;5028355;28;20076;-58
2022/09/10 07:03:32;;;;;;;30.85;15.07;;;;;;;;;;5023411;28;20120;-58
2022/09/10 07:06:02;;;;;;;33.15;15.23;;;;;;;;;;5028029;28;20042;-60
2022/09/10 07:08:28;;;;;;;33.05;14.95;;;;;;;;;;5028629;28;20582;-58
2022/09/10 07:10:59;;;;;;;31.83;15.40;;;;;;;;;;5042481;28;20075;-58
2022/09/10 07:13:26;;;;;;;30.90;15.55;;;;;;;;;;5041880;28;20048;-59
2022/09/10 07:15:52;;;;;;;37.65;15.95;;;;;;;;;;5042053;28;20043;-58
2022/09/10 07:18:19;;;;;;;31.83;14.50;;;;;;;;;;5041609;28;20045;-58
2022/09/10 07:20:45;;;;;;;33.03;14.63;;;;;;;;;;5040111;28;20072;-58
2022/09/10 07:23:13;;;;;;;33.65;15.02;;;;;;;;;;5041750;28;20044;-58
2022/09/10 07:25:39;;;;;;;27.70;14.25;;;;;;;;;;5041675;28;20719;-58
2022/09/10 07:28:11;;;;;;;28.52;14.70;;;;;;;;;;5041847;28;20053;-57
2022/09/10 07:30:38;;;;;;;32.28;14.73;;;;;;;;;;5040880;28;20056;-58
2022/09/10 07:33:05;;;;;;;29.73;14.57;;;;;;;;;;5041438;28;20135;-58
2022/09/10 07:35:34;;;;;;;27.77;14.02;;;;;;;;;;5041191;28;20080;-58
2022/09/10 07:38:00;;;;;;;35.90;13.85;;;;;;;;;;5038887;28;20059;-59
2022/09/10 07:40:27;;;;;;;34.65;16.00;;;;;;;;;;5038087;28;20087;-58
2022/09/10 07:42:54;;;;;;;31.75;13.90;;;;;;;;;;5041527;28;20045;-59
2022/09/10 07:45:21;;;;;;;25.38;13.88;;;;;;;;;;5041413;28;20098;-58
2022/09/10 07:47:47;;;;;;;26.08;13.68;;;;;;;;;;5040446;28;20120;-58
2022/09/10 07:50:13;;;;;;;28.75;14.23;;;;;;;;;;5041801;28;20049;-58
2022/09/10 07:52:40;;;;;;;26.75;13.25;;;;;;;;;;5045266;28;20055;-59
2022/09/10 07:55:06;;;;;;;28.85;14.20;;;;;;;;;;5044683;28;20072;-58
2022/09/10 07:57:38;;;;;;;29.80;15.02;;;;;;;;;;5044095;28;20056;-59
2022/09/10 08:00:10;;;;;;;29.27;14.30;;;;;;;;;;5045050;28;20053;-59
2022/09/10 08:02:37;;;;;;;28.33;14.40;;;;;;;;;;5044185;28;20045;-58
2022/09/10 08:05:03;;;;;;;22.10;12.63;;;;;;;;;;5025862;28;20038;-59
2022/09/10 08:07:30;;;;;;;25.33;13.50;;;;;;;;;;5025727;28;20049;-61
2022/09/10 08:09:56;;;;;;;24.95;12.57;;;;;;;;;;5026065;28;20112;-58
2022/09/10 08:12:24;;;;;;;21.23;12.55;;;;;;;;;;5025344;28;20603;-59
2022/09/10 08:14:51;;;;;;;23.58;13.00;;;;;;;;;;5024405;28;20609;-59
2022/09/10 08:17:17;;;;;;;28.10;13.18;;;;;;;;;;5025508;28;20160;-59
2022/09/10 08:19:44;;;;;;;21.17;11.80;;;;;;;;;;5030555;28;20228;-59
2022/09/10 08:22:10;;;;;;;24.25;11.40;;;;;;;;;;5045067;28;20120;-59
2022/09/10 08:24:36;;;;;;;25.73;14.43;;;;;;;;;;5044868;28;20526;-59
2022/09/10 08:27:03;;;;;;;21.67;9.90;;;;;;;;;;5044668;28;20616;-59
2022/09/10 08:29:29;;;;;;;19.58;10.55;;;;;;;;;;5044102;28;20065;-61
2022/09/10 08:31:55;;;;;;;21.35;11.05;;;;;;;;;;5044829;28;20122;-59
2022/09/10 08:34:21;;;;;;;17.77;10.40;;;;;;;;;;5044568;28;20494;-58
2022/09/10 08:36:47;;;;;;;18.73;9.35;;;;;;;;;;5044571;28;20078;-59
2022/09/10 08:39:14;;;;;;;23.85;10.93;;;;;;;;;;5044295;28;20045;-59
2022/09/10 08:41:46;;;;;;;26.20;10.57;;;;;;;;;;5042353;28;20107;-59
2022/09/10 08:44:23;;;;;;;22.17;10.35;;;;;;;;;;5042437;28;20041;-59
2022/09/10 08:47:07;;;;;;;19.73;10.90;;;;;;;;;;5044275;28;20289;-59
2022/09/10 08:49:37;;;;;;;25.20;12.20;;;;;;;;;;5032482;28;20033;-59
2022/09/10 08:52:16;;;;;;;33.92;13.40;;;;;;;;;;5044532;28;20041;-59
2022/09/10 08:54:50;;;;;;;21.85;10.82;;;;;;;;;;5033192;28;20080;-59
2022/09/10 08:57:22;;;;;;;24.60;11.07;;;;;;;;;;5044403;28;20045;-59
2022/09/10 08:59:51;;;;;;;19.67;9.85;;;;;;;;;;5041308;28;20044;-59
2022/09/10 09:02:32;;;;;;;21.85;10.40;;;;;;;;;;5034241;28;20044;-59
2022/09/10 09:05:02;;;;;;;20.13;10.88;;;;;;;;;;5043383;28;20094;-59
2022/09/10 09:07:31;;;;;;;19.48;10.25;;;;;;;;;;5044390;28;20045;-60
2022/09/10 09:09:58;;;;;;;24.42;10.88;;;;;;;;;;5043636;28;20510;-59
2022/09/10 09:12:31;;;;;;;24.45;11.32;;;;;;;;;;5044786;28;20102;-59
2022/09/10 09:15:09;;;;;;;22.95;11.35;;;;;;;;;;5043202;28;20052;-60
2022/09/10 09:17:35;;;;;;;20.02;9.32;;;;;;;;;;5035429;28;20491;-60
2022/09/10 09:20:06;;;;;;;20.75;10.70;;;;;;;;;;5044146;28;20510;-60
2022/09/10 09:22:45;;;;;;;19.10;10.25;;;;;;;;;;5043892;28;20044;-60
2022/09/10 09:25:20;;;;;;;18.67;9.88;;;;;;;;;;5043273;28;20040;-60
2022/09/10 09:27:48;;;;;;;19.63;10.25;;;;;;;;;;5043950;28;20068;-59
2022/09/10 09:30:17;;;;;;;21.65;10.80;;;;;;;;;;5043158;28;20056;-59
2022/09/10 09:32:44;;;;;;;18.38;10.60;;;;;;;;;;5043485;28;20499;-59
2022/09/10 09:35:31;;;;;;;23.95;10.48;;;;;;;;;;5043274;28;20064;-59
2022/09/10 09:38:07;;;;;;;21.25;11.13;;;;;;;;;;5043483;28;20049;-59
2022/09/10 09:40:43;;;;;;;17.95;10.18;;;;;;;;;;5043479;28;20044;-60
2022/09/10 09:43:18;;;;;;;21.42;10.60;;;;;;;;;;5042370;28;20053;-59
2022/09/10 09:45:46;;;;;;;19.35;9.73;;;;;;;;;;5042750;28;20402;-59
2022/09/10 09:48:14;;;;;;;19.45;9.40;;;;;;;;;;5043299;28;20045;-59
2022/09/10 09:50:42;;;;;;;18.17;9.70;;;;;;;;;;5043219;28;20175;-59
2022/09/10 09:53:11;;;;;;;15.57;8.38;;;;;;;;;;5043601;28;20048;-60
2022/09/10 09:55:39;;;;;;;12.88;7.95;;;;;;;;;;5042374;28;20057;-59
2022/09/10 09:58:20;;;;;;;17.63;8.18;;;;;;;;;;5042569;28;20049;-60
2022/09/10 10:00:48;;;;;;;15.55;7.82;;;;;;;;;;5042698;28;20049;-59
2022/09/10 10:03:15;;;;;;;;;;;;;;;;;;5043786;28;20043;-59
2022/09/10 10:05:41;;;;;;;14.55;7.22;;;;;;;;;;5042599;28;20025;-60
2022/09/10 10:08:27;;;;;;;13.57;6.82;;;;;;;;;;5041606;28;20055;-59
2022/09/10 10:10:53;;;;;;;12.52;6.88;;;;;;;;;;5034686;28;20057;-59
2022/09/10 10:13:20;;;;;;;14.00;7.35;;;;;;;;;;5041900;28;20075;-59
2022/09/10 10:15:47;;;;;;;12.40;7.72;;;;;;;;;;5031692;28;20045;-59
2022/09/10 10:18:23;;;;;;;13.90;6.88;;;;;;;;;;5042144;28;20045;-59
2022/09/10 10:21:03;;;;;;;13.48;7.18;;;;;;;;;;5042591;28;20821;-59
2022/09/10 10:23:37;;;;;;;13.85;7.60;;;;;;;;;;5042782;28;20487;-61
2022/09/10 10:26:17;;;;;;;11.98;6.82;;;;;;;;;;5033363;28;20052;-60
2022/09/10 10:28:46;;;;;;;10.57;5.72;;;;;;;;;;5042029;28;20170;-59
2022/09/10 10:31:12;;;;;;;10.20;5.00;;;;;;;;;;5042505;28;20037;-60
2022/09/10 10:33:45;;;;;;;10.18;5.35;;;;;;;;;;5042642;28;20505;-59
2022/09/10 10:36:22;;;;;;;9.05;4.00;;;;;;;;;;5032989;28;20172;-59
2022/09/10 10:38:54;;;;;;;10.10;4.07;;;;;;;;;;5042475;28;20037;-59
2022/09/10 10:41:41;;;;;;;9.23;5.10;;;;;;;;;;5030511;28;20064;-59
2022/09/10 10:44:22;;;;;;;13.77;7.00;;;;;;;;;;5040797;28;20147;-59
2022/09/10 10:46:52;;;;;;;11.82;5.97;;;;;;;;;;5042863;28;20041;-59
2022/09/10 10:49:26;;;;;;;11.38;6.60;;;;;;;;;;5042254;28;20132;-59
2022/09/10 10:52:06;;;;;;;11.02;6.10;;;;;;;;;;5042459;28;20043;-59
2022/09/10 10:54:32;;;;;;;8.40;5.25;;;;;;;;;;5041967;28;20044;-60
2022/09/10 10:57:08;;;;;;;12.50;6.97;;;;;;;;;;5042963;28;20118;-59
2022/09/10 10:59:49;;;;;;;15.15;7.68;;;;;;;;;;5043643;28;20421;-59
2022/09/10 11:02:35;;;;;;;16.40;8.27;;;;;;;;;;5031754;28;20076;-59
2022/09/10 11:05:04;;;;;;;17.05;8.90;;;;;;;;;;5021957;28;20057;-59
2022/09/10 11:07:38;;;;;;;16.13;8.15;;;;;;;;;;5022430;28;20507;-60
2022/09/10 11:10:17;;;;;;;12.95;7.55;;;;;;;;;;5022657;28;20042;-60
2022/09/10 11:12:44;;;;;;;14.20;7.47;;;;;;;;;;5029266;28;20053;-59
2022/09/10 11:15:19;;;;;;;14.68;7.20;;;;;;;;;;5026388;28;20053;-59
2022/09/10 11:17:50;;;;;;;14.27;6.97;;;;;;;;;;5032174;28;20041;-60
2022/09/10 11:20:23;;;;;;;10.05;5.13;;;;;;;;;;5023321;28;20112;-59
2022/09/10 11:22:53;;;;;;;9.85;5.25;;;;;;;;;;5022157;28;20045;-59
2022/09/10 11:25:25;;;;;;;9.85;5.53;;;;;;;;;;5021142;28;20458;-59
2022/09/10 11:27:54;;;;;;;9.95;5.18;;;;;;;;;;5021693;28;20124;-59
2022/09/10 11:30:21;;;;;;;9.45;5.68;;;;;;;;;;5031921;28;20546;-59
2022/09/10 11:32:48;;;;;;;13.77;5.55;;;;;;;;;;5026027;28;20049;-59
2022/09/10 11:35:21;;;;;;;16.15;6.07;;;;;;;;;;5021816;28;20492;-60
2022/09/10 11:38:00;;;;;;;12.40;5.63;;;;;;;;;;5021900;28;20077;-60
2022/09/10 11:40:38;;;;;;;15.70;6.55;;;;;;;;;;5028596;28;20045;-59
2022/09/10 11:43:09;;;;;;;14.05;6.22;;;;;;;;;;5027401;28;20120;-60
2022/09/10 11:45:45;;;;;;;9.60;6.03;;;;;;;;;;5032876;28;20076;-60
2022/09/10 11:48:22;;;;;;;18.98;6.43;;;;;;;;;;5040860;28;20049;-59
2022/09/10 11:51:00;;;;;;;13.95;6.63;;;;;;;;;;5040935;28;20037;-59
2022/09/10 11:53:27;;;;;;;8.57;5.75;;;;;;;;;;5041195;28;20029;-59
2022/09/10 11:56:06;;;;;;;14.32;7.95;;;;;;;;;;5041494;28;20120;-59
2022/09/10 11:58:40;;;;;;;17.70;7.97;;;;;;;;;;5040093;28;20099;-59
2022/09/10 12:01:13;;;;;;;18.60;7.60;;;;;;;;;;5040982;28;20040;-59
2022/09/10 12:04:00;;;;;;;13.00;7.13;;;;;;;;;;5039755;28;20048;-59
2022/09/10 12:06:37;;;;;;;14.23;6.70;;;;;;;;;;5035560;28;20048;-59
2022/09/10 12:09:08;;;;;;;12.30;7.18;;;;;;;;;;5037378;28;20087;-60
2022/09/10 12:11:50;;;;;;;15.45;7.38;;;;;;;;;;5033623;28;20213;-59
2022/09/10 12:14:18;;;;;;;11.15;6.93;;;;;;;;;;5033574;28;20061;-59
2022/09/10 12:16:45;;;;;;;;;;;;;;;;;;5032567;28;20052;-59
2022/09/10 12:19:21;;;;;;;13.18;7.22;;;;;;;;;;5033587;28;19920;-59
2022/09/10 12:21:49;;;;;;;15.45;6.45;;;;;;;;;;5033702;28;20561;-59
2022/09/10 12:24:25;;;;;;;18.45;7.53;;;;;;;;;;5027774;28;20034;-59
2022/09/10 12:26:53;;;;;;;18.38;8.18;;;;;;;;;;5022521;28;20298;-58
2022/09/10 12:29:26;;;;;;;12.63;7.37;;;;;;;;;;5023790;28;20038;-59
2022/09/10 12:32:08;;;;;;;11.63;6.80;;;;;;;;;;5025556;28;20244;-59
2022/09/10 12:34:35;;;;;;;12.15;6.47;;;;;;;;;;5028183;28;20036;-60
2022/09/10 12:37:01;;;;;;;14.10;6.68;;;;;;;;;;5030539;28;20033;-60
2022/09/10 12:39:28;;;;;;;13.07;6.40;;;;;;;;;;5025424;28;20052;-59
2022/09/10 12:41:55;;;;;;;13.75;5.85;;;;;;;;;;5029704;28;20037;-60
2022/09/10 12:44:34;;;;;;;15.15;6.38;;;;;;;;;;5024673;28;20041;-60
2022/09/10 12:47:16;;;;;;;10.93;6.80;;;;;;;;;;5029006;28;20057;-60
2022/09/10 12:49:49;;;;;;;13.38;6.32;;;;;;;;;;5032648;28;20049;-60
2022/09/10 12:52:24;;;;;;;11.40;6.20;;;;;;;;;;5030476;28;20708;-60
2022/09/10 12:55:02;;;;;;;9.77;6.47;;;;;;;;;;5024698;28;20083;-59
2022/09/10 12:57:35;;;;;;;16.95;6.70;;;;;;;;;;5028127;28;20045;-63
2022/09/10 13:00:11;;;;;;;10.98;5.40;;;;;;;;;;5027905;28;20041;-61
2022/09/10 13:02:45;;;;;;;10.65;4.60;;;;;;;;;;5028798;28;20041;-61
2022/09/10 13:05:32;;;;;;;10.95;5.90;;;;;;;;;;5028608;28;20040;-59
2022/09/10 13:08:06;;;;;;;9.25;5.75;;;;;;;;;;5033766;28;20052;-60
2022/09/10 13:10:33;;;;;;;12.55;6.35;;;;;;;;;;5025109;28;20155;-59
2022/09/10 13:13:03;;;;;;;10.27;5.63;;;;;;;;;;5028794;28;20042;-60
2022/09/10 13:15:34;;;;;;;11.43;5.53;;;;;;;;;;5027492;28;20095;-60
2022/09/10 13:18:01;;;;;;;9.60;5.50;;;;;;;;;;5025428;28;20041;-60
2022/09/10 13:20:29;;;;;;;11.85;5.88;;;;;;;;;;5032935;28;20102;-59
2022/09/10 13:23:00;;;;;;;10.55;4.65;;;;;;;;;;5037690;28;20049;-60
2022/09/10 13:25:35;;;;;;;10.23;4.93;;;;;;;;;;5030547;28;20049;-60
2022/09/10 13:28:02;;;;;;;7.13;4.18;;;;;;;;;;5024820;28;20061;-60
2022/09/10 13:30:30;;;;;;;7.25;4.22;;;;;;;;;;5029020;28;20041;-59
2022/09/10 13:33:00;;;;;;;8.45;3.58;;;;;;;;;;5032623;28;20097;-60
2022/09/10 13:35:41;;;;;;;31.63;6.32;;;;;;;;;;5030840;28;20072;-60
2022/09/10 13:38:10;;;;;;;53.10;11.30;;;;;;;;;;5030054;28;20037;-60
2022/09/10 13:40:49;;;;;;;389.35;63.78;;;;;;;;;;5025089;28;20053;-60
2022/09/10 13:43:18;;;;;;;17.00;5.55;;;;;;;;;;5027325;28;20041;-60
2022/09/10 13:45:50;;;;;;;10.93;5.50;;;;;;;;;;5040652;28;20594;-59
2022/09/10 13:48:20;;;;;;;8.77;4.03;;;;;;;;;;5040939;28;20487;-59
2022/09/10 13:50:48;;;;;;;10.70;3.67;;;;;;;;;;5041978;28;20750;-59
2022/09/10 13:53:15;;;;;;;11.15;3.78;;;;;;;;;;5042039;28;20597;-59
2022/09/10 13:55:49;;;;;;;8.25;3.75;;;;;;;;;;5041593;28;20048;-59
2022/09/10 13:58:17;;;;;;;8.23;3.17;;;;;;;;;;5042019;28;20055;-59
2022/09/10 14:00:52;;;;;;;8.38;3.33;;;;;;;;;;5041770;28;20098;-58
2022/09/10 14:03:29;;;;;;;8.32;3.33;;;;;;;;;;5038416;28;20540;-59
2022/09/10 14:05:57;;;;;;;6.80;2.30;;;;;;;;;;5040137;28;20057;-60
2022/09/10 14:08:25;;;;;;;7.00;2.53;;;;;;;;;;5032789;28;20205;-59
2022/09/10 14:10:54;;;;;;;6.47;2.72;;;;;;;;;;5033017;28;20045;-60
2022/09/10 14:13:23;;;;;;;4.75;2.63;;;;;;;;;;5030836;28;20136;-60
2022/09/10 14:15:51;;;;;;;6.47;3.55;;;;;;;;;;5035180;28;20322;-61
2022/09/10 14:18:17;;;;;;;7.57;4.00;;;;;;;;;;5033129;28;20048;-60
2022/09/10 14:20:44;;;;;;;7.25;3.75;;;;;;;;;;5035523;28;20128;-59
2022/09/10 14:23:16;;;;;;;8.05;3.65;;;;;;;;;;5032131;28;20033;-60
2022/09/10 14:25:43;;;;;;;8.30;4.03;;;;;;;;;;5028283;28;20051;-60
2022/09/10 14:28:15;;;;;;;7.35;2.97;;;;;;;;;;5041011;28;20123;-59
2022/09/10 14:30:42;;;;;;;7.53;3.03;;;;;;;;;;5041395;28;20041;-59
2022/09/10 14:33:20;;;;;;;5.88;2.97;;;;;;;;;;5041665;28;20041;-59
2022/09/10 14:35:50;;;;;;;8.65;3.42;;;;;;;;;;5041749;28;20476;-59
2022/09/10 14:38:23;;;;;;;7.97;3.47;;;;;;;;;;5041290;28;20498;-59